Time;durP1;ratioP1;P1;durP2;ratioP2;P2;SDS_P1;SDS_P2;PMS_P1;PMS_P2;Temp;Humidity;BMP_temperature;BMP_pressure;BME280_temperature;BME280_humidity;BME280_pressure;Samples;Min_cycle;Max_cycle;Signal;HPM_P1;HPM_P2
2022/08/08 00:02:15;;;;;;;3.00;2.70;;;22.40;53.20;;;;;;5013389;28;20596;-68
2022/08/08 00:04:54;;;;;;;2.80;2.60;;;22.40;53.20;;;;;;5014026;28;20202;-67
2022/08/08 00:07:32;;;;;;;3.17;2.83;;;22.40;53.20;;;;;;5014036;28;20176;-67
2022/08/08 00:10:31;;;;;;;3.25;2.42;;;22.40;53.20;;;;;;5013025;28;20231;-67
2022/08/08 00:13:30;;;;;;;2.78;2.58;;;22.40;53.30;;;;;;5030349;28;20182;-67
2022/08/08 00:16:03;;;;;;;2.70;2.47;;;22.40;53.30;;;;;;5013016;28;20234;-67
2022/08/08 00:18:43;;;;;;;2.80;2.60;;;22.40;53.50;;;;;;5014140;28;20509;-67
2022/08/08 00:21:13;;;;;;;3.00;2.70;;;22.40;53.30;;;;;;5030635;28;20207;-67
2022/08/08 00:23:43;;;;;;;3.58;2.50;;;22.40;53.30;;;;;;5013490;28;20224;-67
2022/08/08 00:26:10;;;;;;;3.30;2.67;;;22.40;53.40;;;;;;5031810;28;20239;-66
2022/08/08 00:28:47;;;;;;;4.25;2.78;;;22.40;53.50;;;;;;5017532;28;20522;-66
2022/08/08 00:31:23;;;;;;;2.97;2.78;;;22.40;53.50;;;;;;5034912;28;20191;-67
2022/08/08 00:36:53;;;;;;;2.90;2.45;;;22.40;53.50;;;;;;5033520;28;20218;-67
2022/08/08 00:39:23;;;;;;;3.35;2.78;;;22.30;53.60;;;;;;5034064;28;20207;-67
2022/08/08 00:42:17;;;;;;;2.80;2.60;;;22.40;53.60;;;;;;5033537;28;20536;-67
2022/08/08 00:44:57;;;;;;;2.67;2.40;;;22.30;53.50;;;;;;5016830;28;20180;-66
2022/08/08 00:47:48;;;;;;;3.92;2.70;;;22.30;53.60;;;;;;5034917;28;20187;-67
2022/08/08 00:51:00;;;;;;;2.80;2.60;;;22.40;53.60;;;;;;5033856;28;20220;-66
2022/08/08 00:53:33;;;;;;;2.42;2.22;;;22.30;53.60;;;;;;5033757;28;20249;-66
2022/08/08 00:56:23;;;;;;;2.70;2.58;;;22.30;53.50;;;;;;5033715;28;20195;-66
2022/08/08 00:59:19;;;;;;;3.05;2.75;;;22.30;53.70;;;;;;5034065;28;20194;-67
2022/08/08 01:01:58;;;;;;;2.97;2.70;;;22.30;53.70;;;;;;5034466;28;20223;-68
2022/08/08 01:04:52;;;;;;;2.80;2.60;;;22.30;53.70;;;;;;5034040;28;20225;-68
2022/08/08 01:07:55;;;;;;;2.63;2.38;;;22.30;53.70;;;;;;5034537;28;20176;-68
2022/08/08 01:10:27;;;;;;;2.80;2.58;;;22.30;53.70;;;;;;5033851;28;20273;-67
2022/08/08 01:13:15;;;;;;;2.78;2.58;;;22.30;53.80;;;;;;5032873;28;20188;-67
2022/08/08 01:16:12;;;;;;;3.00;2.70;;;22.30;53.80;;;;;;5034257;28;20171;-67
2022/08/08 01:19:00;;;;;;;2.63;2.42;;;22.30;53.80;;;;;;5034323;28;20174;-68
2022/08/08 01:21:39;;;;;;;2.80;2.60;;;22.30;53.90;;;;;;5033342;28;20256;-67
2022/08/08 01:24:24;;;;;;;3.17;2.70;;;22.30;53.80;;;;;;5016375;28;20680;-67
2022/08/08 01:27:13;;;;;;;2.83;2.58;;;22.30;53.90;;;;;;5033690;28;20175;-67
2022/08/08 01:30:06;;;;;;;3.00;2.72;;;22.30;54.00;;;;;;5034966;28;20176;-66
2022/08/08 01:32:44;;;;;;;2.53;2.33;;;22.30;54.00;;;;;;5034579;28;20657;-68
2022/08/08 01:35:47;;;;;;;2.95;2.75;;;22.20;54.00;;;;;;5033956;28;20188;-67
2022/08/08 01:38:40;;;;;;;2.60;2.40;;;22.20;53.90;;;;;;5032465;28;20183;-68
2022/08/08 01:41:30;;;;;;;2.60;2.40;;;22.30;54.00;;;;;;5032880;28;20179;-67
2022/08/08 01:44:20;;;;;;;3.00;2.80;;;22.30;54.00;;;;;;5033937;28;20218;-67
2022/08/08 01:47:18;;;;;;;3.53;2.70;;;22.20;54.00;;;;;;5033882;28;20538;-65
2022/08/08 01:50:19;;;;;;;3.05;2.83;;;22.20;54.10;;;;;;5032783;28;20176;-66
2022/08/08 01:52:52;;;;;;;2.72;2.53;;;22.30;54.10;;;;;;5032694;28;20192;-67
2022/08/08 01:55:55;;;;;;;3.33;2.78;;;22.20;54.10;;;;;;5015274;28;20172;-67
2022/08/08 01:58:56;;;;;;;2.78;2.58;;;22.20;54.10;;;;;;5033901;28;20195;-67
2022/08/08 02:01:35;;;;;;;2.72;2.42;;;22.20;54.20;;;;;;4972053;28;20247;-67
2022/08/08 02:04:34;;;;;;;2.80;2.60;;;22.20;54.20;;;;;;5008499;28;20227;-67
2022/08/08 02:07:05;;;;;;;2.75;2.22;;;22.20;54.20;;;;;;5033813;28;20261;-68
2022/08/08 02:09:49;;;;;;;2.78;2.58;;;22.20;54.20;;;;;;5015060;28;20681;-68
2022/08/08 02:12:25;;;;;;;3.97;3.20;;;22.20;54.20;;;;;;5033551;28;20205;-67
2022/08/08 02:15:08;;;;;;;2.65;2.45;;;22.20;54.30;;;;;;5015865;28;20183;-67
2022/08/08 02:18:04;;;;;;;2.45;2.25;;;22.10;54.30;;;;;;5031632;28;20171;-67
2022/08/08 02:23:45;;;;;;;2.72;2.53;;;22.20;54.30;;;;;;5031440;28;20241;-67
2022/08/08 02:26:24;;;;;;;2.65;2.45;;;22.20;54.30;;;;;;5032079;28;20202;-66
2022/08/08 02:29:14;;;;;;;2.92;2.40;;;22.10;54.20;;;;;;5015408;28;20183;-66
2022/08/08 02:31:59;;;;;;;2.88;2.20;;;22.10;54.20;;;;;;5032332;28;20579;-67
2022/08/08 02:34:40;;;;;;;2.47;2.17;;;22.10;54.30;;;;;;5015493;28;20179;-67
2022/08/08 02:37:20;;;;;;;4.03;2.83;;;22.10;54.40;;;;;;5032268;28;20278;-68
2022/08/08 02:40:13;;;;;;;2.70;2.38;;;22.10;54.40;;;;;;5015346;28;20176;-67
2022/08/08 02:43:26;;;;;;;2.90;2.70;;;22.10;54.30;;;;;;5031774;28;20307;-66
2022/08/08 02:46:01;;;;;;;2.50;2.30;;;22.10;54.40;;;;;;4989221;28;20263;-66
2022/08/08 02:48:45;;;;;;;2.83;2.50;;;22.10;54.40;;;;;;5032658;28;20183;-66
2022/08/08 02:51:48;;;;;;;2.42;2.22;;;22.10;54.40;;;;;;5032308;28;20178;-66
2022/08/08 02:54:31;;;;;;;2.85;2.65;;;22.10;54.40;;;;;;5032531;28;20171;-67
2022/08/08 02:57:40;;;;;;;2.45;2.25;;;22.10;54.50;;;;;;5032571;28;20176;-67
2022/08/08 03:00:40;;;;;;;2.63;2.42;;;22.10;54.50;;;;;;5031443;28;20176;-67
2022/08/08 03:03:15;;;;;;;2.80;2.50;;;22.10;54.50;;;;;;5031671;28;20219;-67
2022/08/08 03:06:14;;;;;;;2.83;2.53;;;22.10;54.50;;;;;;5032295;28;20171;-68
2022/08/08 03:09:10;;;;;;;3.00;2.67;;;22.10;54.60;;;;;;5032337;28;20681;-68
2022/08/08 03:11:57;;;;;;;3.03;2.72;;;22.00;54.50;;;;;;5031900;28;20268;-67
2022/08/08 03:14:44;;;;;;;2.08;1.95;;;22.00;54.60;;;;;;5014777;28;20521;-67
2022/08/08 03:17:23;;;;;;;2.50;2.30;;;22.10;54.60;;;;;;5032403;28;20203;-68
2022/08/08 03:20:05;;;;;;;6.03;2.80;;;22.00;54.60;;;;;;5030594;28;20254;-68
2022/08/08 03:22:31;;;;;;;2.60;2.40;;;22.00;54.50;;;;;;5032170;28;20687;-67
2022/08/08 03:25:02;;;;;;;2.53;2.33;;;22.00;54.60;;;;;;5032196;28;20176;-67
2022/08/08 03:27:34;;;;;;;2.53;2.35;;;22.00;54.60;;;;;;5031415;28;20255;-66
2022/08/08 03:30:10;;;;;;;2.70;2.50;;;22.00;54.60;;;;;;5032076;28;20191;-67
2022/08/08 03:35:21;;;;;;;2.65;2.45;;;22.00;54.60;;;;;;5032131;28;20203;-67
2022/08/08 03:37:46;;;;;;;2.92;2.72;;;22.00;54.60;;;;;;5031860;28;20184;-67
2022/08/08 03:40:12;;;;;;;3.13;1.92;;;22.00;54.70;;;;;;5031754;28;20179;-66
2022/08/08 03:42:38;;;;;;;2.88;2.40;;;22.00;54.60;;;;;;5031951;28;20238;-66
2022/08/08 03:45:20;;;;;;;2.70;2.13;;;22.00;54.60;;;;;;5031933;28;20204;-68
2022/08/08 03:48:06;;;;;;;2.97;2.13;;;22.00;54.60;;;;;;5013266;28;20188;-66
2022/08/08 03:50:32;;;;;;;2.17;2.03;;;22.00;54.70;;;;;;5031800;28;20180;-66
2022/08/08 03:53:10;;;;;;;2.78;2.40;;;22.00;54.80;;;;;;5031666;28;20187;-67
2022/08/08 03:55:39;;;;;;;2.53;2.33;;;22.00;54.60;;;;;;5031370;28;20179;-66
2022/08/08 03:58:05;;;;;;;3.05;2.50;;;22.00;54.60;;;;;;5031811;28;20179;-67
2022/08/08 04:00:31;;;;;;;2.65;2.20;;;22.00;54.70;;;;;;5032258;28;20229;-67
2022/08/08 04:02:59;;;;;;;2.28;2.15;;;22.00;54.60;;;;;;5034894;28;20548;-66
2022/08/08 04:05:29;;;;;;;2.67;2.38;;;22.00;54.70;;;;;;5035797;28;20182;-68
2022/08/08 04:07:55;;;;;;;2.88;2.30;;;22.00;54.70;;;;;;5035237;28;20180;-67
2022/08/08 04:10:20;;;;;;;3.17;2.30;;;21.90;54.60;;;;;;5035606;28;20358;-68
2022/08/08 04:12:46;;;;;;;3.20;2.70;;;22.00;54.70;;;;;;5035622;28;20187;-66
2022/08/08 04:15:14;;;;;;;2.55;2.20;;;22.00;54.70;;;;;;5035055;28;20175;-67
2022/08/08 04:17:40;;;;;;;2.85;2.55;;;22.00;54.60;;;;;;5035850;28;20207;-67
2022/08/08 04:20:06;;;;;;;2.47;2.28;;;22.00;54.70;;;;;;5035485;28;20207;-66
2022/08/08 04:22:31;;;;;;;3.28;2.25;;;22.00;54.80;;;;;;5034878;28;20223;-67
2022/08/08 04:24:57;;;;;;;2.72;2.50;;;22.00;54.80;;;;;;5035502;28;20518;-67
2022/08/08 04:27:23;;;;;;;2.38;2.17;;;21.90;54.70;;;;;;5035485;28;20608;-67
2022/08/08 04:29:49;;;;;;;2.45;2.25;;;22.00;54.80;;;;;;5034614;28;20254;-67
2022/08/08 04:32:14;;;;;;;2.20;2.00;;;22.00;54.80;;;;;;5035434;28;20176;-67
2022/08/08 04:34:40;;;;;;;3.05;2.38;;;21.90;54.70;;;;;;5035363;28;20255;-67
2022/08/08 04:37:06;;;;;;;2.28;2.10;;;21.90;54.60;;;;;;5034698;28;20180;-67
2022/08/08 04:39:31;;;;;;;2.63;2.13;;;22.00;54.80;;;;;;5035168;28;20175;-67
2022/08/08 04:41:57;;;;;;;2.40;2.20;;;22.00;54.80;;;;;;5035051;28;20188;-67
2022/08/08 04:44:22;;;;;;;2.38;2.10;;;22.00;54.80;;;;;;5034396;28;20180;-67
2022/08/08 04:46:48;;;;;;;2.10;1.90;;;21.90;54.70;;;;;;5034822;28;20335;-66
2022/08/08 04:49:13;;;;;;;2.63;2.42;;;21.90;55.30;;;;;;5035258;28;20212;-66
2022/08/08 04:51:39;;;;;;;3.17;2.40;;;21.90;54.60;;;;;;5034469;28;20283;-66
2022/08/08 04:54:04;;;;;;;2.72;2.53;;;21.90;54.60;;;;;;5034873;28;20211;-67
2022/08/08 04:56:30;;;;;;;2.40;2.17;;;21.90;54.70;;;;;;5034859;28;20291;-67
2022/08/08 04:58:55;;;;;;;2.55;2.33;;;22.00;54.70;;;;;;5033975;28;20183;-66
2022/08/08 05:01:21;;;;;;;2.42;2.22;;;21.90;54.70;;;;;;5034742;28;20172;-67
2022/08/08 05:03:46;;;;;;;2.53;2.20;;;22.00;54.70;;;;;;5034737;28;20215;-67
2022/08/08 05:06:12;;;;;;;2.33;2.13;;;22.00;54.80;;;;;;5034239;28;20179;-68
2022/08/08 05:08:38;;;;;;;2.28;2.10;;;22.00;54.70;;;;;;5016674;28;20277;-67
2022/08/08 05:11:03;;;;;;;2.50;2.30;;;21.90;54.60;;;;;;5034374;28;20179;-67
2022/08/08 05:13:29;;;;;;;2.05;1.95;;;21.90;54.60;;;;;;5034013;28;20184;-67
2022/08/08 05:15:54;;;;;;;2.60;2.40;;;22.00;54.60;;;;;;5034325;28;20634;-68
2022/08/08 05:18:20;;;;;;;2.33;2.17;;;22.00;54.70;;;;;;5033691;28;20180;-68
2022/08/08 05:20:46;;;;;;;3.15;2.28;;;22.00;54.70;;;;;;5034588;28;20199;-67
2022/08/08 05:23:11;;;;;;;2.40;2.20;;;22.00;54.70;;;;;;5034580;28;20222;-67
2022/08/08 05:25:37;;;;;;;2.20;2.10;;;22.00;54.70;;;;;;5033620;28;20543;-67
2022/08/08 05:28:02;;;;;;;2.17;2.05;;;22.00;54.70;;;;;;5034022;28;20642;-66
2022/08/08 05:30:28;;;;;;;2.38;2.17;;;22.00;54.70;;;;;;5034333;28;20531;-67
2022/08/08 05:32:53;;;;;;;3.28;2.42;;;22.00;54.70;;;;;;5033433;28;20168;-67
2022/08/08 05:35:21;;;;;;;2.42;2.25;;;22.00;54.70;;;;;;5033173;28;20172;-67
2022/08/08 05:37:49;;;;;;;2.28;2.17;;;22.00;54.80;;;;;;5033994;28;20176;-67
2022/08/08 05:40:15;;;;;;;2.40;2.00;;;22.00;54.70;;;;;;5032185;28;20345;-67
2022/08/08 05:42:42;;;;;;;2.42;2.28;;;22.00;54.70;;;;;;5032944;28;20702;-67
2022/08/08 05:45:08;;;;;;;2.58;2.15;;;22.00;54.70;;;;;;5033846;28;20535;-67
2022/08/08 05:47:38;;;;;;;2.03;1.80;;;22.00;54.70;;;;;;5033216;28;20492;-67
2022/08/08 05:50:05;;;;;;;2.70;1.60;;;22.00;54.80;;;;;;5033838;28;20657;-66
2022/08/08 05:52:33;;;;;;;2.35;1.90;;;22.00;54.70;;;;;;5033995;28;20183;-67
2022/08/08 05:54:58;;;;;;;2.22;2.13;;;22.00;54.70;;;;;;5033091;28;20179;-67
2022/08/08 05:57:25;;;;;;;2.10;1.90;;;22.00;54.80;;;;;;5033769;28;20183;-67
2022/08/08 05:59:50;;;;;;;1.90;1.80;;;22.00;54.70;;;;;;5032619;28;20203;-67
2022/08/08 06:05:11;;;;;;;2.47;2.28;;;22.00;54.90;;;;;;5033670;28;20222;-68
2022/08/08 06:07:40;;;;;;;2.22;2.00;;;22.00;55.40;;;;;;5031404;28;20222;-69
2022/08/08 06:10:07;;;;;;;2.13;2.00;;;22.00;54.70;;;;;;5033166;28;20311;-68
2022/08/08 06:12:33;;;;;;;1.70;1.60;;;22.00;54.80;;;;;;5032459;28;20634;-67
2022/08/08 06:14:59;;;;;;;2.00;1.90;;;22.10;54.80;;;;;;5031561;28;20211;-68
2022/08/08 06:17:25;;;;;;;1.80;1.70;;;22.10;54.80;;;;;;5033273;28;20207;-69
2022/08/08 06:19:50;;;;;;;2.17;1.70;;;22.10;54.80;;;;;;5033234;28;20212;-68
2022/08/08 06:22:16;;;;;;;2.17;1.98;;;22.10;54.80;;;;;;5014863;28;20633;-67
2022/08/08 06:24:41;;;;;;;2.53;1.90;;;22.10;54.70;;;;;;5032812;28;20653;-66
2022/08/08 06:27:09;;;;;;;1.95;1.85;;;22.10;54.70;;;;;;5033338;28;20275;-67
2022/08/08 06:29:43;;;;;;;2.00;1.80;;;22.10;54.70;;;;;;5031145;28;20684;-67
2022/08/08 06:32:13;;;;;;;1.92;1.70;;;22.10;54.70;;;;;;5031601;28;20175;-67
2022/08/08 06:34:39;;;;;;;2.08;1.88;;;22.10;54.70;;;;;;5015526;28;20179;-69
2022/08/08 06:37:05;;;;;;;2.08;1.80;;;22.10;54.70;;;;;;5014246;28;20621;-68
2022/08/08 06:39:31;;;;;;;2.00;1.60;;;22.10;54.80;;;;;;5015553;28;20190;-69
2022/08/08 06:41:58;;;;;;;1.75;1.65;;;22.10;54.70;;;;;;5031713;28;20199;-68
2022/08/08 06:44:24;;;;;;;1.73;1.63;;;22.10;54.70;;;;;;5032315;28;20191;-67
2022/08/08 06:46:51;;;;;;;1.67;1.58;;;22.10;54.80;;;;;;5032952;28;20176;-68
2022/08/08 06:49:16;;;;;;;1.50;1.40;;;22.10;54.70;;;;;;5031525;28;20707;-67
2022/08/08 06:51:42;;;;;;;2.40;2.20;;;22.10;54.70;;;;;;5030779;28;20267;-68
2022/08/08 06:54:08;;;;;;;2.08;1.88;;;22.10;54.70;;;;;;5031329;28;20175;-69
2022/08/08 06:56:33;;;;;;;1.42;1.33;;;22.20;54.70;;;;;;5032742;28;20195;-66
2022/08/08 06:58:59;;;;;;;3.13;1.80;;;22.20;54.90;;;;;;5030952;28;20630;-65
2022/08/08 07:01:24;;;;;;;2.08;1.70;;;22.20;54.80;;;;;;5032651;28;20203;-66
2022/08/08 07:03:52;;;;;;;1.67;1.58;;;22.20;54.70;;;;;;5030483;28;20226;-66
2022/08/08 07:06:21;;;;;;;1.92;1.83;;;22.30;54.70;;;;;;5031246;28;20237;-67
2022/08/08 07:08:47;;;;;;;5.20;2.30;;;22.30;54.60;;;;;;5032323;28;20227;-68
2022/08/08 07:11:15;;;;;;;2.17;1.50;;;22.30;54.70;;;;;;5030626;28;20546;-69
2022/08/08 07:13:43;;;;;;;2.70;1.27;;;22.30;54.80;;;;;;5031531;28;20531;-69
2022/08/08 07:16:21;;;;;;;2.90;1.63;;;22.30;54.80;;;;;;5032457;28;20245;-69
2022/08/08 07:19:10;;;;;;;2.95;1.70;;;22.30;55.10;;;;;;5030289;28;20184;-67
2022/08/08 07:21:49;;;;;;;1.95;1.58;;;22.30;55.00;;;;;;5032175;28;20626;-69
2022/08/08 07:24:22;;;;;;;2.92;1.83;;;22.30;55.00;;;;;;5032236;28;20219;-69
2022/08/08 07:26:48;;;;;;;5.18;2.17;;;22.30;55.00;;;;;;5013857;28;20533;-68
2022/08/08 07:29:13;;;;;;;2.72;1.83;;;22.30;54.80;;;;;;5030899;28;20709;-68
2022/08/08 07:31:39;;;;;;;3.50;2.03;;;22.40;54.90;;;;;;5031230;28;20262;-69
2022/08/08 07:34:04;;;;;;;2.58;2.25;;;22.30;54.90;;;;;;5030349;28;20168;-69
2022/08/08 07:36:30;;;;;;;6.25;2.30;;;22.40;55.00;;;;;;5031377;28;20278;-70
2022/08/08 07:38:56;;;;;;;3.35;1.75;;;22.40;55.00;;;;;;5030181;28;20580;-69
2022/08/08 07:41:21;;;;;;;4.70;2.35;;;22.40;55.10;;;;;;5014508;28;20171;-70
2022/08/08 07:43:48;;;;;;;4.93;2.22;;;22.40;55.10;;;;;;5014095;28;20276;-70
2022/08/08 07:46:13;;;;;;;2.22;1.73;;;22.40;55.00;;;;;;5031354;28;20542;-68
2022/08/08 07:48:39;;;;;;;2.85;1.30;;;22.40;55.00;;;;;;5032073;28;20180;-69
2022/08/08 07:51:04;;;;;;;3.88;2.10;;;22.40;54.90;;;;;;5032330;28;20189;-69
2022/08/08 07:53:57;;;;;;;2.20;1.50;;;22.50;55.00;;;;;;5030185;28;20175;-69
2022/08/08 07:56:24;;;;;;;1.95;1.63;;;22.50;54.90;;;;;;5030942;28;20180;-69
2022/08/08 07:58:49;;;;;;;4.30;1.88;;;22.50;54.90;;;;;;5014366;28;20270;-68
2022/08/08 08:01:19;;;;;;;4.30;1.70;;;22.50;54.90;;;;;;5013831;28;20270;-69
2022/08/08 08:03:49;;;;;;;1.90;1.70;;;22.50;54.90;;;;;;5014881;28;20531;-70
2022/08/08 08:06:14;;;;;;;2.10;2.00;;;22.50;54.90;;;;;;5030709;28;20199;-71
2022/08/08 08:08:41;;;;;;;2.78;1.77;;;22.50;54.90;;;;;;5013387;28;20243;-70
2022/08/08 08:11:12;;;;;;;3.13;1.67;;;22.60;54.90;;;;;;5030458;28;20192;-69
2022/08/08 08:13:44;;;;;;;3.08;1.60;;;22.60;54.90;;;;;;5031932;28;20216;-70
2022/08/08 08:16:12;;;;;;;4.03;1.52;;;22.60;54.80;;;;;;5031441;28;20230;-70
2022/08/08 08:18:51;;;;;;;1.85;1.70;;;22.60;54.90;;;;;;5031900;28;20214;-70
2022/08/08 08:21:17;;;;;;;2.50;2.00;;;22.60;54.90;;;;;;5031089;28;20175;-70
2022/08/08 08:23:42;;;;;;;1.73;1.60;;;22.60;54.90;;;;;;5030781;28;20554;-69
2022/08/08 08:26:08;;;;;;;2.22;1.73;;;22.60;54.90;;;;;;5031954;28;20237;-69
2022/08/08 08:28:33;;;;;;;2.22;1.60;;;22.70;54.90;;;;;;5031053;28;20176;-69
2022/08/08 08:31:03;;;;;;;1.92;1.73;;;22.70;54.80;;;;;;5031729;28;20172;-68
2022/08/08 08:33:29;;;;;;;1.83;1.50;;;22.70;54.80;;;;;;5030453;28;20172;-69
2022/08/08 08:35:54;;;;;;;1.65;1.55;;;22.70;54.90;;;;;;5030694;28;20696;-69
2022/08/08 08:38:20;;;;;;;2.03;1.75;;;22.70;54.80;;;;;;5031779;28;20176;-70
2022/08/08 08:40:45;;;;;;;2.28;1.73;;;22.70;54.80;;;;;;5031694;28;20172;-69
2022/08/08 08:43:11;;;;;;;3.83;1.77;;;22.80;54.90;;;;;;5029757;28;20208;-69
2022/08/08 08:45:36;;;;;;;2.55;1.80;;;22.80;54.90;;;;;;5013949;28;20183;-69
2022/08/08 08:48:02;;;;;;;2.92;1.50;;;22.70;54.80;;;;;;5032954;28;20595;-69
2022/08/08 08:50:28;;;;;;;2.97;1.80;;;22.80;54.80;;;;;;5034284;28;20176;-68
2022/08/08 08:52:54;;;;;;;1.70;1.60;;;22.80;54.80;;;;;;5035213;28;20209;-69
2022/08/08 08:55:19;;;;;;;3.15;1.80;;;22.80;54.70;;;;;;5033921;28;20635;-69
2022/08/08 08:57:46;;;;;;;1.98;1.83;;;22.80;54.70;;;;;;5034171;28;20249;-69
2022/08/08 09:00:12;;;;;;;4.35;1.88;;;22.90;54.70;;;;;;5033891;28;20222;-69
2022/08/08 09:02:37;;;;;;;3.22;1.60;;;22.90;54.70;;;;;;5034725;28;20211;-70
2022/08/08 09:05:06;;;;;;;1.73;1.58;;;22.90;54.80;;;;;;5032716;28;20180;-70
2022/08/08 09:07:33;;;;;;;2.20;1.35;;;22.90;54.70;;;;;;5035041;28;20199;-71
2022/08/08 09:09:58;;;;;;;2.08;1.70;;;22.90;54.70;;;;;;5034437;28;20765;-70
2022/08/08 09:12:24;;;;;;;2.50;1.95;;;23.00;54.60;;;;;;5032870;28;20262;-70
2022/08/08 09:14:55;;;;;;;2.70;1.55;;;23.00;54.60;;;;;;5034477;28;20183;-71
2022/08/08 09:17:23;;;;;;;1.83;1.42;;;23.00;54.60;;;;;;5032714;28;20176;-71
2022/08/08 09:19:50;;;;;;;2.13;1.92;;;23.00;54.50;;;;;;5034739;28;20180;-70
2022/08/08 09:22:16;;;;;;;1.70;1.60;;;23.00;54.50;;;;;;5033293;28;20184;-70
2022/08/08 09:24:41;;;;;;;2.78;1.85;;;23.10;54.60;;;;;;5032732;28;20222;-70
2022/08/08 09:27:07;;;;;;;1.50;1.40;;;23.10;54.50;;;;;;5033134;28;20168;-70
2022/08/08 09:30:00;;;;;;;2.28;1.50;;;23.10;54.60;;;;;;5034506;28;20172;-70
2022/08/08 09:32:36;;;;;;;3.78;1.58;;;23.10;54.60;;;;;;5033868;28;20180;-71
2022/08/08 09:35:08;;;;;;;2.05;1.40;;;23.10;54.50;;;;;;5034432;28;20221;-71
2022/08/08 09:37:39;;;;;;;2.47;1.40;;;23.10;54.40;;;;;;5034271;28;20183;-71
2022/08/08 09:40:06;;;;;;;1.40;1.30;;;23.20;54.40;;;;;;5032142;28;20673;-71
2022/08/08 09:42:34;;;;;;;2.42;1.80;;;23.10;54.30;;;;;;5033775;28;20563;-70
2022/08/08 09:45:17;;;;;;;1.38;1.27;;;23.00;54.50;;;;;;5033734;28;20657;-70
2022/08/08 09:47:43;;;;;;;2.08;1.50;;;23.00;54.60;;;;;;5033429;28;20278;-70
2022/08/08 09:50:16;;;;;;;2.25;1.60;;;23.00;54.70;;;;;;5033350;28;20289;-70
2022/08/08 09:52:49;;;;;;;3.33;1.88;;;23.00;54.70;;;;;;5032912;28;20180;-67
2022/08/08 09:55:15;;;;;;;2.47;1.55;;;23.00;54.70;;;;;;5032104;28;20200;-67
2022/08/08 09:57:41;;;;;;;2.70;1.65;;;23.20;54.60;;;;;;5031587;28;20564;-67
2022/08/08 10:00:09;;;;;;;4.20;1.40;;;23.20;54.40;;;;;;5028913;28;20168;-68
2022/08/08 10:02:36;;;;;;;2.78;1.65;;;23.30;54.20;;;;;;5032602;28;20223;-67
2022/08/08 10:05:09;;;;;;;2.85;1.38;;;23.30;54.40;;;;;;5033372;28;20179;-66
2022/08/08 10:07:35;;;;;;;2.42;1.10;;;23.20;54.40;;;;;;5032910;28;20650;-67
2022/08/08 10:10:00;;;;;;;3.28;1.52;;;23.30;54.40;;;;;;5031917;28;20235;-66
2022/08/08 10:12:31;;;;;;;2.38;1.75;;;23.30;54.50;;;;;;5032146;28;20521;-67
2022/08/08 10:15:00;;;;;;;1.65;1.40;;;23.20;54.60;;;;;;5032587;28;20219;-69
2022/08/08 10:17:26;;;;;;;5.45;1.90;;;23.20;54.60;;;;;;5033251;28;20175;-69
2022/08/08 10:19:56;;;;;;;2.00;1.40;;;23.20;54.60;;;;;;5031281;28;20230;-71
2022/08/08 10:22:22;;;;;;;2.97;1.50;;;23.20;54.70;;;;;;5031144;28;20172;-71
2022/08/08 10:24:47;;;;;;;5.57;1.60;;;23.10;54.70;;;;;;5032833;28;20176;-70
2022/08/08 10:27:13;;;;;;;2.85;1.52;;;23.20;54.70;;;;;;5031860;28;20222;-70
2022/08/08 10:29:52;;;;;;;3.20;1.42;;;23.20;54.70;;;;;;5031343;28;20572;-70
2022/08/08 10:32:36;;;;;;;5.38;2.10;;;23.20;54.70;;;;;;5033022;28;20172;-71
2022/08/08 10:35:13;;;;;;;4.60;1.83;;;23.20;54.60;;;;;;5032495;28;20188;-71
2022/08/08 10:37:52;;;;;;;4.20;1.40;;;23.20;54.60;;;;;;5033206;28;20265;-71
2022/08/08 10:40:18;;;;;;;3.17;1.63;;;23.10;54.60;;;;;;5032066;28;20286;-71
2022/08/08 10:42:44;;;;;;;5.55;1.85;;;23.10;54.60;;;;;;5031843;28;20200;-70
2022/08/08 10:45:10;;;;;;;4.18;1.60;;;23.10;54.60;;;;;;5032904;28;20176;-70
2022/08/08 10:47:36;;;;;;;3.05;1.50;;;23.10;54.60;;;;;;5032606;28;20630;-70
2022/08/08 10:50:05;;;;;;;1.67;1.45;;;23.10;54.60;;;;;;5031076;28;20258;-66
2022/08/08 10:52:38;;;;;;;3.30;1.42;;;23.10;54.50;;;;;;5032616;28;20176;-70
2022/08/08 10:55:09;;;;;;;4.05;1.45;;;23.10;54.50;;;;;;5032660;28;20184;-75
2022/08/08 10:57:39;;;;;;;4.53;1.70;;;23.10;54.50;;;;;;5031924;28;20183;-70
2022/08/08 11:00:05;;;;;;;5.97;1.77;;;23.20;54.60;;;;;;5031295;28;20773;-71
2022/08/08 11:02:31;;;;;;;2.10;1.48;;;23.30;54.40;;;;;;5032411;28;20610;-71
2022/08/08 11:05:01;;;;;;;2.97;1.60;;;23.20;54.50;;;;;;5031785;28;20214;-72
2022/08/08 11:07:31;;;;;;;2.08;1.27;;;23.20;54.50;;;;;;5032570;28;20638;-71
2022/08/08 11:10:04;;;;;;;2.55;1.50;;;23.20;54.60;;;;;;5031144;28;20243;-71
2022/08/08 11:12:32;;;;;;;2.55;1.17;;;23.10;54.60;;;;;;5032079;28;20202;-71
2022/08/08 11:15:01;;;;;;;7.15;1.55;;;23.10;54.60;;;;;;5032267;28;20176;-71
2022/08/08 11:17:30;;;;;;;1.35;1.15;;;23.10;54.60;;;;;;5031554;28;20203;-71
2022/08/08 11:19:56;;;;;;;1.30;1.08;;;23.10;54.60;;;;;;5032304;28;20182;-71
2022/08/08 11:22:26;;;;;;;2.72;1.30;;;23.20;54.70;;;;;;5032236;28;20266;-71
2022/08/08 11:24:59;;;;;;;6.10;1.60;;;23.20;54.70;;;;;;5031722;28;20176;-71
2022/08/08 11:27:24;;;;;;;3.33;1.42;;;23.10;54.60;;;;;;5032277;28;20175;-71
2022/08/08 11:29:50;;;;;;;2.50;1.40;;;23.10;54.70;;;;;;5032682;28;20183;-71
2022/08/08 11:32:15;;;;;;;2.03;1.27;;;23.10;54.70;;;;;;5030462;28;20278;-72
2022/08/08 11:34:41;;;;;;;5.65;1.40;;;23.10;54.70;;;;;;5032438;28;20218;-69
2022/08/08 11:37:07;;;;;;;8.18;1.65;;;23.10;54.70;;;;;;5014386;28;20184;-71
2022/08/08 11:39:32;;;;;;;2.60;1.08;;;23.20;54.50;;;;;;5013899;28;20179;-72
2022/08/08 11:41:58;;;;;;;3.45;1.40;;;23.40;54.40;;;;;;5032040;28;20194;-73
2022/08/08 11:44:23;;;;;;;3.13;1.55;;;23.50;54.20;;;;;;4997896;28;20577;-72
2022/08/08 11:46:56;;;;;;;2.90;1.17;;;23.60;54.20;;;;;;5013546;28;20638;-71
2022/08/08 11:49:22;;;;;;;3.42;1.40;;;23.50;54.20;;;;;;5032024;28;20175;-72
2022/08/08 11:51:47;;;;;;;2.83;1.50;;;23.50;54.40;;;;;;5014515;28;20543;-72
2022/08/08 11:54:13;;;;;;;4.55;1.80;;;23.40;54.60;;;;;;5013973;28;20179;-72
2022/08/08 11:56:38;;;;;;;1.80;1.35;;;23.30;54.70;;;;;;5032452;28;20172;-72
2022/08/08 11:59:08;;;;;;;3.95;1.30;;;23.30;54.80;;;;;;5031164;28;20175;-71
2022/08/08 12:01:33;;;;;;;2.03;1.10;;;23.30;54.90;;;;;;5031929;28;20183;-72
2022/08/08 12:03:59;;;;;;;1.90;1.50;;;23.40;55.00;;;;;;5031677;28;20207;-71
2022/08/08 12:06:24;;;;;;;5.05;1.23;;;23.30;55.00;;;;;;5031078;28;20176;-71
2022/08/08 12:08:50;;;;;;;4.65;1.80;;;23.50;54.80;;;;;;5031383;28;20743;-55
2022/08/08 12:11:19;;;;;;;5.50;1.52;;;23.40;54.60;;;;;;5014412;28;20168;-55
2022/08/08 12:13:48;;;;;;;10.43;2.10;;;23.40;54.60;;;;;;5031038;28;20218;-48
2022/08/08 12:16:18;;;;;;;5.57;1.77;;;23.30;54.90;;;;;;5031839;28;20171;-57
2022/08/08 12:18:46;;;;;;;5.60;1.90;;;23.20;54.90;;;;;;5031879;28;20184;-54
2022/08/08 12:21:29;;;;;;;7.22;1.45;;;23.30;54.90;;;;;;5031310;28;20545;-55
2022/08/08 12:24:01;;;;;;;3.53;1.70;;;23.20;54.90;;;;;;5035593;28;20227;-55
2022/08/08 12:26:46;;;;;;;3.53;1.75;;;23.20;54.90;;;;;;5035569;28;20200;-50
2022/08/08 12:29:22;;;;;;;6.10;1.60;;;23.20;54.90;;;;;;5018977;28;20259;-53
2022/08/08 12:32:16;;;;;;;4.82;1.67;;;23.10;54.90;;;;;;5035471;28;20184;-52
2022/08/08 12:34:43;;;;;;;7.00;1.90;;;23.10;55.00;;;;;;5035023;28;20522;-53
2022/08/08 12:37:21;;;;;;;4.95;1.92;;;23.20;55.00;;;;;;5033886;28;20635;-56
2022/08/08 12:39:46;;;;;;;3.25;2.13;;;23.10;55.00;;;;;;5034959;28;20183;-54
2022/08/08 12:42:12;;;;;;;3.38;1.70;;;23.20;55.00;;;;;;5016675;28;20189;-56
2022/08/08 12:44:39;;;;;;;3.08;1.70;;;23.30;54.90;;;;;;5017346;28;20226;-55
2022/08/08 12:47:05;;;;;;;4.35;2.08;;;23.20;54.80;;;;;;5017570;28;20175;-53
2022/08/08 12:49:32;;;;;;;3.30;1.58;;;23.20;54.80;;;;;;5034412;28;20179;-57
2022/08/08 12:51:58;;;;;;;4.78;2.00;;;23.20;54.90;;;;;;5034834;28;20176;-50
2022/08/08 12:54:25;;;;;;;5.90;1.70;;;23.10;54.90;;;;;;5035275;28;20234;-56
2022/08/08 12:56:51;;;;;;;4.47;1.80;;;23.10;55.00;;;;;;5034179;28;20190;-53
2022/08/08 12:59:24;;;;;;;3.17;1.55;;;23.10;55.00;;;;;;5017627;28;20180;-57
2022/08/08 13:01:53;;;;;;;4.75;1.50;;;23.10;54.90;;;;;;5034762;28;20552;-56
2022/08/08 13:04:26;;;;;;;3.20;1.80;;;23.10;54.90;;;;;;5034365;28;20223;-55
2022/08/08 13:07:03;;;;;;;7.03;1.75;;;23.10;55.00;;;;;;5035017;28;20194;-52
2022/08/08 13:10:03;;;;;;;5.82;1.65;;;23.20;54.90;;;;;;5033936;28;20254;-50
2022/08/08 13:12:36;;;;;;;3.75;1.58;;;23.20;54.70;;;;;;5018389;28;20646;-51
2022/08/08 13:15:04;;;;;;;3.67;1.63;;;23.20;54.70;;;;;;5034597;28;20524;-50
2022/08/08 13:17:31;;;;;;;3.05;1.83;;;23.20;55.50;;;;;;5016310;28;20575;-56
2022/08/08 13:19:57;;;;;;;2.88;1.40;;;23.20;54.80;;;;;;5035093;28;20175;-60
2022/08/08 13:22:23;;;;;;;3.13;1.63;;;23.20;54.70;;;;;;5035741;28;20238;-58
2022/08/08 13:24:48;;;;;;;3.90;1.83;;;23.20;54.70;;;;;;5033859;28;20178;-58
2022/08/08 13:27:18;;;;;;;3.60;1.70;;;23.20;54.70;;;;;;5034584;28;20707;-58